Time;durP1;ratioP1;P1;durP2;ratioP2;P2;SDS_P1;SDS_P2;PMS_P1;PMS_P2;Temp;Humidity;BMP_temperature;BMP_pressure;BME280_temperature;BME280_humidity;BME280_pressure;Samples;Min_cycle;Max_cycle;Signal;HPM_P1;HPM_P2
2022/11/10 00:01:06;;;;;;;5.45;2.50;;;11.10;99.90;;;;;;5003950;28;20029;-69
2022/11/10 00:03:34;;;;;;;5.32;2.17;;;11.10;99.90;;;;;;5005388;28;20121;-69
2022/11/10 00:06:05;;;;;;;4.63;2.28;;;11.00;99.90;;;;;;5002809;28;20726;-69
2022/11/10 00:08:31;;;;;;;4.80;2.00;;;10.90;99.90;;;;;;5011587;28;20112;-69
2022/11/10 00:10:57;;;;;;;4.47;1.77;;;10.80;99.90;;;;;;5010594;28;20172;-69
2022/11/10 00:13:32;;;;;;;11.55;2.25;;;10.80;99.90;;;;;;5003433;28;20034;-69
2022/11/10 00:18:49;;;;;;;6.30;1.73;;;10.90;99.90;;;;;;5003932;28;20105;-68
2022/11/10 00:21:16;;;;;;;1.83;1.50;;;10.90;99.90;;;;;;5003382;28;20070;-68
2022/11/10 00:23:44;;;;;;;6.03;1.58;;;10.80;99.90;;;;;;5002102;28;20052;-68
2022/11/10 00:26:16;;;;;;;4.13;1.42;;;10.80;99.90;;;;;;5002776;28;20065;-68
2022/11/10 00:28:43;;;;;;;4.15;1.30;;;10.70;99.90;;;;;;5001400;28;20042;-68
2022/11/10 00:31:10;;;;;;;2.92;0.85;;;10.70;99.90;;;;;;5005810;28;20281;-67
2022/11/10 00:33:39;;;;;;;7.65;1.50;;;10.60;99.90;;;;;;5011570;28;20037;-68
2022/11/10 00:36:05;;;;;;;3.08;0.75;;;10.60;99.90;;;;;;5001081;28;20454;-68
2022/11/10 00:38:31;;;;;;;5.75;1.38;;;10.50;99.90;;;;;;5009938;28;20427;-68
2022/11/10 00:40:58;;;;;;;11.23;1.67;;;10.50;99.90;;;;;;5006347;28;20034;-69
2022/11/10 00:43:24;;;;;;;1.65;1.13;;;10.50;99.90;;;;;;4998356;28;20085;-68
2022/11/10 00:45:50;;;;;;;1.08;0.82;;;10.50;99.90;;;;;;5005539;28;20030;-68
2022/11/10 00:48:16;;;;;;;2.78;0.68;;;10.50;99.90;;;;;;5002812;28;20037;-68
2022/11/10 00:50:42;;;;;;;5.90;1.73;;;10.40;99.90;;;;;;5006710;28;20030;-68
2022/11/10 00:53:07;;;;;;;3.72;1.08;;;10.40;99.90;;;;;;5007124;28;20157;-68
2022/11/10 00:55:37;;;;;;;2.40;1.52;;;10.40;99.90;;;;;;5007160;28;20486;-68
2022/11/10 00:58:04;;;;;;;2.13;1.40;;;10.30;99.90;;;;;;5006620;28;20505;-68
2022/11/10 01:00:29;;;;;;;1.75;0.77;;;10.20;99.90;;;;;;5007671;28;20549;-68
2022/11/10 01:02:55;;;;;;;5.35;1.65;;;10.20;99.90;;;;;;5004854;28;20041;-68
2022/11/10 01:05:21;;;;;;;2.65;1.73;;;10.20;99.90;;;;;;5008576;28;20112;-68
2022/11/10 01:07:46;;;;;;;5.22;2.55;;;10.20;99.90;;;;;;5004638;28;20042;-68
2022/11/10 01:10:12;;;;;;;5.45;2.17;;;10.10;99.90;;;;;;5009686;28;20107;-68
2022/11/10 01:12:38;;;;;;;4.72;1.80;;;10.10;99.90;;;;;;5003443;28;20473;-67
2022/11/10 01:15:05;;;;;;;2.85;1.35;;;10.10;99.90;;;;;;5003692;28;20037;-68
2022/11/10 01:17:30;;;;;;;2.40;1.08;;;10.00;99.90;;;;;;5001463;28;20018;-68
2022/11/10 01:19:56;;;;;;;2.15;1.60;;;10.00;99.90;;;;;;5010426;28;20112;-68
2022/11/10 01:22:22;;;;;;;14.05;2.65;;;10.00;99.90;;;;;;5001662;28;20088;-68
2022/11/10 01:24:47;;;;;;;5.38;1.23;;;10.10;99.90;;;;;;5010277;28;20030;-68
2022/11/10 01:27:13;;;;;;;7.03;1.30;;;10.10;99.90;;;;;;5009123;28;20034;-68
2022/11/10 01:29:39;;;;;;;15.82;1.58;;;10.10;99.90;;;;;;5017878;28;20125;-68
2022/11/10 01:32:04;;;;;;;1.65;1.30;;;10.00;99.90;;;;;;5003227;28;20495;-68
2022/11/10 01:34:30;;;;;;;10.27;1.92;;;10.00;99.90;;;;;;4993459;28;20433;-68
2022/11/10 01:36:56;;;;;;;4.05;1.30;;;10.00;99.90;;;;;;5002681;28;20026;-68
2022/11/10 01:39:21;;;;;;;7.18;2.35;;;9.90;99.90;;;;;;5006031;28;20042;-68
2022/11/10 01:41:47;;;;;;;5.60;1.77;;;9.90;99.90;;;;;;5005015;28;20029;-68
2022/11/10 01:44:20;;;;;;;2.90;1.33;;;9.90;99.90;;;;;;5013681;28;20497;-69
2022/11/10 01:46:46;;;;;;;8.25;1.63;;;9.90;99.90;;;;;;5006358;28;20026;-68
2022/11/10 01:49:16;;;;;;;17.52;1.20;;;9.90;99.90;;;;;;5013804;28;20099;-69
2022/11/10 01:51:52;;;;;;;8.60;1.80;;;9.90;99.90;;;;;;5005989;28;20022;-68
2022/11/10 01:54:29;;;;;;;2.72;1.60;;;9.90;99.90;;;;;;5010339;28;20088;-69
2022/11/10 01:57:02;;;;;;;2.50;1.38;;;10.00;99.90;;;;;;5005045;28;20441;-68
2022/11/10 01:59:32;;;;;;;1.20;1.00;;;10.00;99.90;;;;;;5011324;28;20073;-68
2022/11/10 02:02:25;;;;;;;7.05;2.03;;;9.90;99.90;;;;;;5012494;28;20030;-69
2022/11/10 02:04:51;;;;;;;1.23;0.93;;;10.00;99.90;;;;;;5009186;28;20041;-69
2022/11/10 02:07:20;;;;;;;1.95;1.13;;;9.90;99.90;;;;;;5008635;28;20033;-69
2022/11/10 02:09:45;;;;;;;2.42;1.02;;;9.90;99.90;;;;;;5005672;28;20036;-68
2022/11/10 02:12:12;;;;;;;2.50;1.35;;;10.00;99.90;;;;;;5013385;28;20030;-69
2022/11/10 02:14:38;;;;;;;6.88;1.75;;;10.00;99.90;;;;;;5008568;28;20505;-69
2022/11/10 02:17:03;;;;;;;9.68;2.25;;;10.00;99.90;;;;;;5013887;28;20108;-68
2022/11/10 02:19:38;;;;;;;9.50;2.05;;;10.00;99.90;;;;;;5010178;28;20122;-68
2022/11/10 02:22:03;;;;;;;2.45;1.20;;;10.00;99.90;;;;;;5008642;28;20038;-68
2022/11/10 02:24:29;;;;;;;3.97;2.47;;;9.90;99.90;;;;;;5010127;28;20379;-68
2022/11/10 02:26:56;;;;;;;3.53;1.38;;;9.90;99.90;;;;;;5007268;28;20133;-68
2022/11/10 02:29:24;;;;;;;3.22;1.85;;;9.90;99.90;;;;;;5023235;23;22016;-65
2022/11/10 02:31:50;;;;;;;4.47;1.50;;;9.90;99.90;;;;;;5005227;28;20054;-66
2022/11/10 02:34:16;;;;;;;3.65;1.48;;;9.90;99.90;;;;;;5011843;28;20042;-65
2022/11/10 02:36:42;;;;;;;3.35;0.98;;;9.80;99.90;;;;;;5012135;28;20014;-66
2022/11/10 02:39:08;;;;;;;3.40;1.80;;;9.50;99.90;;;;;;5007433;28;20023;-65
2022/11/10 02:41:33;;;;;;;3.92;1.90;;;9.30;99.90;;;;;;5001777;28;20023;-66
2022/11/10 02:43:59;;;;;;;3.65;2.15;;;9.20;99.90;;;;;;4992689;28;20030;-65
2022/11/10 02:46:25;;;;;;;2.40;1.65;;;9.10;99.90;;;;;;4993919;28;20034;-66
2022/11/10 02:48:51;;;;;;;3.53;2.15;;;9.10;99.90;;;;;;4992886;28;20394;-66
2022/11/10 02:51:16;;;;;;;3.53;1.67;;;9.10;99.90;;;;;;4992902;28;20038;-66
2022/11/10 02:53:42;;;;;;;4.07;1.77;;;9.10;99.90;;;;;;4992257;28;20101;-66
2022/11/10 02:56:08;;;;;;;5.55;2.03;;;9.10;99.90;;;;;;4991954;28;20101;-66
2022/11/10 02:58:33;;;;;;;4.70;1.98;;;9.10;99.90;;;;;;4992032;28;20026;-66
2022/11/10 03:01:04;;;;;;;5.78;2.55;;;9.20;99.90;;;;;;4992738;28;20038;-66
2022/11/10 03:03:30;;;;;;;12.38;4.50;;;9.20;99.90;;;;;;4991992;28;20073;-66
2022/11/10 03:05:56;;;;;;;4.13;1.90;;;9.20;99.90;;;;;;4984764;28;20038;-66
2022/11/10 03:08:21;;;;;;;2.88;1.60;;;9.20;99.90;;;;;;4973930;28;20042;-66
2022/11/10 03:10:47;;;;;;;3.08;1.80;;;9.20;99.90;;;;;;4990335;28;20129;-66
2022/11/10 03:13:13;;;;;;;8.70;2.70;;;9.10;99.90;;;;;;4993060;28;20041;-66
2022/11/10 03:15:38;;;;;;;6.38;1.63;;;9.10;99.90;;;;;;4991875;28;20031;-66
2022/11/10 03:18:04;;;;;;;9.23;1.70;;;9.00;99.90;;;;;;4992719;28;20530;-66
2022/11/10 03:20:30;;;;;;;3.80;1.88;;;9.00;99.90;;;;;;4992260;28;20030;-66
2022/11/10 03:23:03;;;;;;;2.47;1.65;;;9.00;99.90;;;;;;4993073;28;20041;-66
2022/11/10 03:25:29;;;;;;;2.92;1.70;;;8.90;99.90;;;;;;4991918;28;20034;-66
2022/11/10 03:27:55;;;;;;;5.63;1.95;;;9.00;99.90;;;;;;4991630;28;20034;-66
2022/11/10 03:30:21;;;;;;;4.35;1.77;;;9.00;99.90;;;;;;4991469;28;20437;-65
2022/11/10 03:32:46;;;;;;;6.57;1.98;;;8.90;99.90;;;;;;4991154;28;20041;-66
2022/11/10 03:35:12;;;;;;;6.50;1.70;;;8.80;99.90;;;;;;4991343;28;20093;-65
2022/11/10 03:37:41;;;;;;;1.48;1.13;;;8.90;99.90;;;;;;4992528;28;20493;-66
2022/11/10 03:40:07;;;;;;;5.00;2.42;;;8.80;99.90;;;;;;4990845;28;20109;-65
2022/11/10 03:42:33;;;;;;;2.67;1.77;;;8.90;99.90;;;;;;4973098;28;20502;-65
2022/11/10 03:44:59;;;;;;;4.22;1.85;;;8.90;99.90;;;;;;4983474;28;20034;-66
2022/11/10 03:47:25;;;;;;;11.77;1.90;;;8.90;99.90;;;;;;4992546;28;20034;-65
2022/11/10 03:49:50;;;;;;;2.17;1.42;;;8.90;99.90;;;;;;4991250;28;20034;-65
2022/11/10 03:52:16;;;;;;;10.13;1.65;;;8.90;99.90;;;;;;4992353;28;20027;-65
2022/11/10 03:54:41;;;;;;;5.18;2.05;;;8.90;99.90;;;;;;4991064;28;20036;-65
2022/11/10 03:57:07;;;;;;;3.17;1.65;;;8.90;99.90;;;;;;4991398;28;20019;-66
2022/11/10 03:59:33;;;;;;;5.40;1.73;;;8.90;99.90;;;;;;4991104;28;20447;-65
2022/11/10 04:01:58;;;;;;;3.53;2.03;;;8.90;99.90;;;;;;4989691;28;20030;-65
2022/11/10 04:09:58;;;;;;;6.93;1.90;;;8.80;99.90;;;;;;4990976;28;20538;-66
2022/11/10 04:18:19;;;;;;;5.57;2.75;;;8.70;99.90;;;;;;4991725;28;20108;-66
2022/11/10 04:20:41;;;;;;;6.15;2.05;;;8.60;99.90;;;;;;4991254;28;20041;-65
2022/11/10 04:28:44;;;;;;;6.88;2.20;;;8.50;99.90;;;;;;4972293;28;20063;-66
2022/11/10 04:31:10;;;;;;;4.75;2.35;;;8.50;99.90;;;;;;4990423;28;20033;-66
2022/11/10 04:33:37;;;;;;;2.28;1.30;;;8.50;99.90;;;;;;4989836;28;20034;-66
2022/11/10 04:36:03;;;;;;;4.35;2.25;;;8.50;99.90;;;;;;4990309;28;20033;-65
2022/11/10 04:38:29;;;;;;;19.23;3.58;;;8.50;99.90;;;;;;4990017;28;20449;-66
2022/11/10 04:40:55;;;;;;;2.85;2.45;;;8.50;99.90;;;;;;4986649;28;20054;-65
2022/11/10 04:43:21;;;;;;;3.63;2.00;;;8.40;99.90;;;;;;4989988;28;20030;-66
2022/11/10 04:45:46;;;;;;;7.43;3.22;;;8.40;99.90;;;;;;4986307;28;20105;-66
2022/11/10 04:48:12;;;;;;;3.38;1.92;;;8.40;99.90;;;;;;4988480;28;20030;-65
2022/11/10 04:50:38;;;;;;;14.30;3.28;;;8.40;99.90;;;;;;4990494;28;20035;-65
2022/11/10 04:53:03;;;;;;;5.32;2.30;;;8.40;99.90;;;;;;4990188;28;20030;-66
2022/11/10 04:55:29;;;;;;;6.78;2.65;;;8.40;99.90;;;;;;4989958;28;20089;-65
2022/11/10 04:57:55;;;;;;;5.30;2.63;;;8.40;99.90;;;;;;4991230;28;20032;-66
2022/11/10 05:00:21;;;;;;;5.07;2.67;;;8.30;99.90;;;;;;4985730;28;20049;-66
2022/11/10 05:02:46;;;;;;;7.22;2.83;;;8.30;99.90;;;;;;4991202;28;20037;-65
2022/11/10 05:05:12;;;;;;;13.48;2.80;;;8.30;99.90;;;;;;4989502;28;20116;-66
2022/11/10 05:07:38;;;;;;;5.05;1.95;;;8.20;99.90;;;;;;4991273;28;20045;-65
2022/11/10 05:10:04;;;;;;;11.85;2.80;;;8.20;99.90;;;;;;4990317;28;20030;-66
2022/11/10 05:12:30;;;;;;;4.45;2.50;;;8.20;99.90;;;;;;4986519;28;20027;-65
2022/11/10 05:14:55;;;;;;;9.88;2.63;;;8.20;99.90;;;;;;4988282;28;20030;-65
2022/11/10 05:17:21;;;;;;;5.43;2.00;;;8.20;99.90;;;;;;4990910;28;20409;-66
2022/11/10 05:19:47;;;;;;;9.52;2.55;;;8.20;99.90;;;;;;4989820;28;20034;-65
2022/11/10 05:22:13;;;;;;;4.10;2.17;;;8.20;99.90;;;;;;4990955;28;20037;-65
2022/11/10 05:24:39;;;;;;;2.95;2.22;;;8.20;99.90;;;;;;4990166;28;20026;-65
2022/11/10 05:27:05;;;;;;;6.13;3.13;;;8.20;99.90;;;;;;4990814;28;20497;-66
2022/11/10 05:29:31;;;;;;;6.40;3.50;;;8.20;99.90;;;;;;4989050;28;20130;-66
2022/11/10 05:31:56;;;;;;;10.57;2.42;;;8.20;99.90;;;;;;4991044;28;20113;-66
2022/11/10 05:34:22;;;;;;;3.88;2.00;;;8.20;99.90;;;;;;4990145;28;20031;-66
2022/11/10 05:36:48;;;;;;;11.02;3.63;;;8.20;99.90;;;;;;4990693;28;20038;-66
2022/11/10 05:39:13;;;;;;;7.75;3.63;;;8.20;99.90;;;;;;4990436;28;20038;-66
2022/11/10 05:41:39;;;;;;;10.75;2.38;;;8.20;99.90;;;;;;4990972;28;20027;-66
2022/11/10 05:44:05;;;;;;;3.78;2.42;;;8.20;99.90;;;;;;4989068;28;20030;-66
2022/11/10 05:46:31;;;;;;;10.05;4.00;;;8.20;99.90;;;;;;4990985;28;20038;-65
2022/11/10 05:48:56;;;;;;;4.28;2.88;;;8.20;99.90;;;;;;4989927;28;20041;-66
2022/11/10 05:51:22;;;;;;;6.72;2.33;;;8.20;99.90;;;;;;4990508;28;20031;-66
2022/11/10 05:53:48;;;;;;;6.53;2.47;;;8.20;99.90;;;;;;4989648;28;20044;-66
2022/11/10 05:56:13;;;;;;;7.28;2.95;;;8.20;99.90;;;;;;4991911;28;20030;-66
2022/11/10 05:58:39;;;;;;;15.25;2.92;;;8.20;99.90;;;;;;4988718;28;20463;-66
2022/11/10 06:01:05;;;;;;;9.98;4.03;;;8.30;99.90;;;;;;4990462;28;20135;-66
2022/11/10 06:03:30;;;;;;;3.72;2.22;;;8.40;99.90;;;;;;4990669;28;20049;-66
2022/11/10 06:05:56;;;;;;;3.63;1.92;;;8.50;99.90;;;;;;4989301;28;20030;-65
2022/11/10 06:08:22;;;;;;;4.90;2.20;;;8.50;99.90;;;;;;4989244;28;20038;-65
2022/11/10 06:10:47;;;;;;;4.13;2.22;;;8.60;99.90;;;;;;4988378;28;20070;-65
2022/11/10 06:13:13;;;;;;;4.43;2.45;;;8.50;99.90;;;;;;4990470;28;20030;-65
2022/11/10 06:15:39;;;;;;;5.45;1.65;;;8.50;99.90;;;;;;4988808;28;20030;-64
2022/11/10 06:18:05;;;;;;;4.90;3.00;;;8.50;99.90;;;;;;4986164;28;20042;-64
2022/11/10 06:20:31;;;;;;;5.55;2.50;;;8.50;99.90;;;;;;4985604;28;20034;-64
2022/11/10 06:23:04;;;;;;;5.30;2.08;;;8.60;99.90;;;;;;4988810;28;20034;-63
2022/11/10 06:25:33;;;;;;;4.53;2.42;;;8.60;99.90;;;;;;4973197;28;20426;-64
2022/11/10 06:27:59;;;;;;;5.43;3.03;;;8.60;99.90;;;;;;4989106;28;20101;-66
2022/11/10 06:30:26;;;;;;;3.63;2.53;;;8.50;99.90;;;;;;4991413;28;20482;-63
2022/11/10 06:32:52;;;;;;;6.18;3.50;;;8.50;99.90;;;;;;4989481;28;20027;-63
2022/11/10 06:35:19;;;;;;;3.47;2.20;;;8.50;99.90;;;;;;4990611;28;20461;-66
2022/11/10 06:37:44;;;;;;;11.65;3.05;;;8.50;99.90;;;;;;4993614;28;20061;-63
2022/11/10 06:40:12;;;;;;;5.38;2.42;;;8.40;99.90;;;;;;4991547;28;20084;-63
2022/11/10 06:42:38;;;;;;;6.07;2.35;;;8.40;99.90;;;;;;4984761;28;20426;-63
2022/11/10 06:45:05;;;;;;;10.85;3.45;;;8.40;99.90;;;;;;4992041;28;20026;-64
2022/11/10 06:47:30;;;;;;;3.72;2.40;;;8.50;99.90;;;;;;4993508;28;20044;-62
2022/11/10 06:49:56;;;;;;;4.07;2.75;;;8.40;99.90;;;;;;4991588;28;20101;-65
2022/11/10 06:52:22;;;;;;;4.90;2.30;;;8.40;99.90;;;;;;4993273;28;20045;-63
2022/11/10 06:54:48;;;;;;;3.42;1.73;;;8.40;99.90;;;;;;4993483;28;20544;-64
2022/11/10 06:57:13;;;;;;;11.52;2.67;;;8.30;99.90;;;;;;4993144;28;20026;-64
2022/11/10 06:59:39;;;;;;;7.15;3.22;;;8.30;99.90;;;;;;4991909;28;20022;-64
2022/11/10 07:02:08;;;;;;;3.20;2.28;;;8.20;99.90;;;;;;4987580;28;20584;-63
2022/11/10 07:04:34;;;;;;;4.55;3.13;;;8.20;99.90;;;;;;4991533;28;20088;-64
2022/11/10 07:07:00;;;;;;;3.72;1.77;;;8.20;99.90;;;;;;4993264;28;20026;-65
2022/11/10 07:09:25;;;;;;;4.40;2.75;;;8.20;99.90;;;;;;4975942;28;20113;-66
2022/11/10 07:11:51;;;;;;;6.55;3.85;;;8.20;99.90;;;;;;5021969;28;20045;-65
2022/11/10 07:14:17;;;;;;;9.43;3.92;;;8.20;99.90;;;;;;4994035;28;20037;-65
2022/11/10 07:16:42;;;;;;;6.00;2.65;;;8.20;99.90;;;;;;4994917;28;20431;-65
2022/11/10 07:19:08;;;;;;;8.35;3.60;;;8.20;99.90;;;;;;4995799;28;20034;-64
2022/11/10 07:21:34;;;;;;;6.50;3.05;;;8.10;99.90;;;;;;4993129;28;20117;-64
2022/11/10 07:23:59;;;;;;;7.93;3.03;;;8.10;99.90;;;;;;4995454;28;20034;-64
2022/11/10 07:26:25;;;;;;;15.50;3.80;;;8.20;99.90;;;;;;4992932;28;20034;-65
2022/11/10 07:28:51;;;;;;;10.40;2.97;;;8.20;99.90;;;;;;4993847;28;20038;-65
2022/11/10 07:31:16;;;;;;;8.93;3.67;;;8.30;99.90;;;;;;5016980;28;20368;-65
2022/11/10 07:33:42;;;;;;;13.60;3.42;;;8.30;99.90;;;;;;4998709;28;20029;-64
2022/11/10 07:36:08;;;;;;;5.30;3.78;;;8.30;99.90;;;;;;4995861;28;20076;-65
2022/11/10 07:38:34;;;;;;;5.50;2.45;;;8.30;99.90;;;;;;4993989;28;20034;-64
2022/11/10 07:41:00;;;;;;;5.47;2.70;;;8.30;99.90;;;;;;4994214;28;20568;-64
2022/11/10 07:43:25;;;;;;;9.10;3.55;;;8.40;99.90;;;;;;4994316;28;20030;-64
2022/11/10 07:45:52;;;;;;;5.88;2.97;;;8.40;99.90;;;;;;4995289;28;20138;-64
2022/11/10 07:48:18;;;;;;;5.35;3.17;;;8.30;99.90;;;;;;4995604;28;20034;-65
2022/11/10 07:50:44;;;;;;;7.38;4.07;;;8.40;99.90;;;;;;5001861;28;20053;-65
2022/11/10 07:53:20;;;;;;;6.43;3.45;;;8.40;99.90;;;;;;4993814;28;20091;-65
2022/11/10 07:55:46;;;;;;;9.23;5.05;;;8.50;99.90;;;;;;5004008;28;20087;-64
2022/11/10 07:58:16;;;;;;;11.90;3.40;;;8.60;99.90;;;;;;5012980;28;20026;-65
2022/11/10 08:00:43;;;;;;;5.80;3.15;;;8.60;99.90;;;;;;5007540;28;20501;-64
2022/11/10 08:03:16;;;;;;;11.18;4.10;;;8.70;99.90;;;;;;5021061;28;20044;-65
2022/11/10 08:05:42;;;;;;;16.67;4.50;;;8.80;99.90;;;;;;5014083;28;20093;-65
2022/11/10 08:08:09;;;;;;;10.05;4.50;;;8.90;99.90;;;;;;5023304;28;20075;-65
2022/11/10 08:10:35;;;;;;;5.22;3.13;;;8.90;99.90;;;;;;5029788;28;20085;-65
2022/11/10 08:13:04;;;;;;;4.18;2.53;;;9.00;99.90;;;;;;4969965;28;20049;-65
2022/11/10 08:15:33;;;;;;;8.88;3.85;;;9.00;99.90;;;;;;4995214;28;20034;-65
2022/11/10 08:18:22;;;;;;;12.48;4.63;;;9.10;99.90;;;;;;5024739;28;20026;-66
2022/11/10 08:20:48;;;;;;;11.35;3.47;;;9.20;99.90;;;;;;5015518;28;20030;-65
2022/11/10 08:23:15;;;;;;;10.82;2.65;;;9.30;99.90;;;;;;4997116;28;20536;-65
2022/11/10 08:25:41;;;;;;;7.13;3.55;;;9.40;99.90;;;;;;4998156;28;20149;-66
2022/11/10 08:28:13;;;;;;;6.45;3.50;;;9.40;99.90;;;;;;5015118;28;20104;-65
2022/11/10 08:30:42;;;;;;;6.55;3.72;;;9.50;99.90;;;;;;5003964;23;20074;-67
2022/11/10 08:33:10;;;;;;;15.35;3.60;;;9.60;99.90;;;;;;4969371;28;20053;-69
2022/11/10 08:35:42;;;;;;;13.02;3.28;;;9.70;99.90;;;;;;4977364;28;20027;-68
2022/11/10 08:38:18;;;;;;;41.97;4.80;;;9.80;99.90;;;;;;4966660;28;20057;-68
2022/11/10 08:40:44;;;;;;;7.13;3.35;;;9.90;99.90;;;;;;5006015;28;20135;-70
2022/11/10 08:43:11;;;;;;;8.52;3.20;;;9.90;99.90;;;;;;5002287;28;20036;-68
2022/11/10 08:45:41;;;;;;;6.88;3.58;;;9.90;99.90;;;;;;5002630;28;20038;-68
2022/11/10 08:48:19;;;;;;;5.32;2.67;;;10.00;99.90;;;;;;5001857;28;20026;-67
2022/11/10 08:50:46;;;;;;;16.38;4.38;;;10.10;99.90;;;;;;5003887;28;20584;-67
2022/11/10 08:53:16;;;;;;;9.27;4.15;;;10.30;99.90;;;;;;5017190;28;20033;-70
2022/11/10 08:55:43;;;;;;;16.90;4.57;;;10.30;99.90;;;;;;5018847;28;20108;-70
2022/11/10 08:58:20;;;;;;;17.92;5.10;;;10.50;99.90;;;;;;5017444;28;20061;-69
2022/11/10 09:00:47;;;;;;;8.45;3.63;;;10.60;99.90;;;;;;4996848;28;20037;-69
2022/11/10 09:03:20;;;;;;;7.80;3.10;;;10.60;99.90;;;;;;5009021;28;20022;-68
2022/11/10 09:05:48;;;;;;;8.38;3.17;;;10.70;99.90;;;;;;4994895;28;20053;-69
2022/11/10 09:08:14;;;;;;;4.45;3.00;;;10.90;99.90;;;;;;4995860;28;20034;-68
2022/11/10 09:10:44;;;;;;;18.17;4.35;;;11.00;99.90;;;;;;4986955;28;20828;-67
2022/11/10 09:13:13;;;;;;;12.13;3.80;;;11.20;99.90;;;;;;5003098;28;20529;-67
2022/11/10 09:15:40;;;;;;;6.10;2.58;;;11.40;99.90;;;;;;4997156;28;20097;-69
2022/11/10 09:18:08;;;;;;;9.43;3.05;;;11.50;99.90;;;;;;4990292;28;20474;-67
2022/11/10 09:20:36;;;;;;;10.45;2.63;;;11.70;99.90;;;;;;5008937;28;20092;-67
2022/11/10 09:23:17;;;;;;;7.32;3.65;;;11.80;99.90;;;;;;5005995;28;20034;-67
2022/11/10 09:25:52;;;;;;;4.07;2.55;;;11.90;99.90;;;;;;4991797;28;20056;-67
2022/11/10 09:28:20;;;;;;;5.55;2.97;;;12.00;99.90;;;;;;5003918;28;20046;-70
2022/11/10 09:30:47;;;;;;;9.15;2.60;;;12.10;99.90;;;;;;5001845;28;20141;-70
2022/11/10 09:33:13;;;;;;;4.32;2.30;;;12.30;99.90;;;;;;5014077;28;20043;-70
2022/11/10 09:35:39;;;;;;;2.63;2.10;;;12.50;99.90;;;;;;5001889;28;20391;-72
2022/11/10 09:38:05;;;;;;;4.72;2.10;;;12.70;99.90;;;;;;5003016;28;20041;-67
2022/11/10 09:41:02;;;;;;;7.60;2.03;;;12.80;99.90;;;;;;5001666;28;20069;-71
2022/11/10 09:43:49;;;;;;;7.68;2.08;;;13.10;99.90;;;;;;4998669;28;20041;-69
2022/11/10 09:46:25;;;;;;;6.00;1.77;;;13.80;99.90;;;;;;4992067;28;20050;-69
2022/11/10 09:48:57;;;;;;;2.47;1.48;;;14.80;99.90;;;;;;4990146;28;20183;-70
2022/11/10 09:51:33;;;;;;;5.63;2.28;;;16.30;99.90;;;;;;5016866;28;20038;-69
2022/11/10 09:54:28;;;;;;;3.13;1.40;;;16.60;99.90;;;;;;4995387;28;20033;-70
2022/11/10 09:57:01;;;;;;;5.72;1.60;;;15.80;99.90;;;;;;5005397;28;20042;-71
2022/11/10 09:59:31;;;;;;;2.63;0.80;;;17.20;99.90;;;;;;4999047;28;20433;-71
2022/11/10 10:02:20;;;;;;;3.03;1.13;;;16.20;99.90;;;;;;5024260;28;20542;-71
2022/11/10 10:04:51;;;;;;;11.68;1.52;;;17.50;99.90;;;;;;5001270;28;20125;-70
2022/11/10 10:07:28;;;;;;;2.28;1.83;;;17.40;99.90;;;;;;5026939;28;20029;-70
2022/11/10 10:10:20;;;;;;;3.67;0.93;;;16.20;99.90;;;;;;4995024;28;20416;-70
2022/11/10 10:12:57;;;;;;;2.35;1.05;;;16.10;99.90;;;;;;5007502;28;20033;-70
2022/11/10 10:15:43;;;;;;;5.00;1.52;;;15.70;99.90;;;;;;5002275;28;20114;-69
2022/11/10 10:18:28;;;;;;;8.13;1.00;;;15.80;99.90;;;;;;5005567;28;20105;-70
2022/11/10 10:21:09;;;;;;;2.70;0.90;;;16.60;99.90;;;;;;5018944;28;20038;-70
2022/11/10 10:23:52;;;;;;;3.30;1.05;;;16.60;99.90;;;;;;5017848;28;20510;-73
2022/11/10 10:26:30;;;;;;;6.03;1.10;;;15.80;99.90;;;;;;4987048;28;20061;-70
2022/11/10 10:29:04;;;;;;;7.63;0.98;;;17.00;99.90;;;;;;5000013;28;20034;-69
2022/11/10 10:31:42;;;;;;;6.28;1.00;;;15.80;99.90;;;;;;5011454;28;20072;-71
2022/11/10 10:34:16;;;;;;;4.10;1.52;;;16.70;99.90;;;;;;4992938;28;20201;-70
2022/11/10 10:36:45;;;;;;;3.58;0.65;;;16.00;99.90;;;;;;4992727;28;20026;-71
2022/11/10 10:39:37;;;;;;;5.85;2.13;;;16.00;99.90;;;;;;5000217;28;20478;-71
2022/11/10 10:42:17;;;;;;;5.95;0.95;;;15.80;99.90;;;;;;5008233;28;20034;-72
2022/11/10 10:45:12;;;;;;;9.83;1.17;;;16.60;99.90;;;;;;5000087;28;20069;-72
2022/11/10 10:47:39;;;;;;;2.45;1.15;;;16.00;99.90;;;;;;4966980;28;20109;-71
2022/11/10 10:50:26;;;;;;;3.78;0.98;;;15.40;99.90;;;;;;5003472;28;20037;-71
2022/11/10 10:53:19;;;;;;;1.92;0.57;;;15.90;99.90;;;;;;4997437;28;20724;-72
2022/11/10 10:55:59;;;;;;;3.25;0.88;;;16.90;99.90;;;;;;5014252;28;20089;-72
2022/11/10 10:58:52;;;;;;;4.03;0.83;;;17.30;99.90;;;;;;5004852;28;20057;-72
2022/11/10 11:01:30;;;;;;;2.97;0.68;;;18.40;99.90;;;;;;5005180;28;20034;-72
2022/11/10 11:03:57;;;;;;;1.95;0.60;;;18.50;99.90;;;;;;4999232;28;20037;-72
2022/11/10 11:06:28;;;;;;;14.27;1.60;;;19.00;99.90;;;;;;5009304;28;20030;-71
2022/11/10 11:09:07;;;;;;;4.00;0.90;;;20.80;99.90;;;;;;5000225;28;20034;-70
2022/11/10 11:11:39;;;;;;;3.75;1.58;;;19.90;99.90;;;;;;4998484;28;20034;-71
2022/11/10 11:14:21;;;;;;;6.75;1.08;;;19.10;99.40;;;;;;5014503;28;20042;-69
2022/11/10 11:16:59;;;;;;;2.50;0.80;;;19.40;99.90;;;;;;4992286;28;20122;-71
2022/11/10 11:19:34;;;;;;;8.00;1.30;;;18.70;99.90;;;;;;5000851;28;20117;-71
2022/11/10 11:22:18;;;;;;;4.78;0.57;;;18.20;99.90;;;;;;5006517;28;20030;-72
2022/11/10 11:25:17;;;;;;;8.77;0.80;;;17.70;99.90;;;;;;4992703;28;20165;-71
2022/11/10 11:28:17;;;;;;;8.32;1.02;;;20.00;99.90;;;;;;4994943;28;20033;-70
2022/11/10 11:31:03;;;;;;;6.80;0.82;;;20.20;99.90;;;;;;5012245;28;20048;-71
2022/11/10 11:33:59;;;;;;;6.13;0.90;;;19.40;99.90;;;;;;5015197;28;20441;-72
2022/11/10 11:36:42;;;;;;;3.25;1.10;;;18.60;99.90;;;;;;4993986;28;20040;-70
2022/11/10 11:39:47;;;;;;;4.20;1.33;;;19.70;99.90;;;;;;5000264;28;20152;-72
2022/11/10 11:42:48;;;;;;;8.45;0.45;;;19.20;99.90;;;;;;5001131;28;20057;-70
2022/11/10 11:45:37;;;;;;;1.25;0.47;;;18.30;99.90;;;;;;4999101;28;20448;-71
2022/11/10 11:48:32;;;;;;;3.40;0.65;;;18.40;99.90;;;;;;4996130;28;20108;-70
2022/11/10 11:51:28;;;;;;;2.97;0.85;;;18.50;99.90;;;;;;4975034;28;20041;-69
2022/11/10 11:54:21;;;;;;;2.75;0.70;;;18.40;99.90;;;;;;4989854;28;20038;-69
2022/11/10 11:56:49;;;;;;;1.23;0.60;;;18.40;99.90;;;;;;4994167;28;20026;-69
2022/11/10 11:59:40;;;;;;;3.78;1.48;;;18.00;99.90;;;;;;4999222;28;20038;-71
2022/11/10 12:02:33;;;;;;;2.60;0.68;;;18.00;99.90;;;;;;5003284;28;20034;-70
2022/11/10 12:05:29;;;;;;;7.82;1.42;;;17.80;99.90;;;;;;5000248;28;20033;-70
2022/11/10 12:08:19;;;;;;;6.93;1.05;;;19.70;99.90;;;;;;4999784;28;20065;-69
2022/11/10 12:11:50;;;;;;;3.13;1.25;;;20.20;99.90;;;;;;5004526;28;20246;-69
2022/11/10 12:14:50;;;;;;;2.67;0.80;;;18.60;99.90;;;;;;4974509;28;20391;-69
2022/11/10 12:17:33;;;;;;;2.28;0.47;;;19.00;99.90;;;;;;5015984;28;20045;-69
2022/11/10 12:20:26;;;;;;;5.38;0.63;;;20.30;99.90;;;;;;5006379;28;20034;-69
2022/11/10 12:23:03;;;;;;;1.45;0.47;;;18.60;99.90;;;;;;4999109;28;20125;-69
2022/11/10 12:25:39;;;;;;;6.15;1.13;;;17.90;99.90;;;;;;5018433;28;20044;-69
2022/11/10 12:28:37;;;;;;;2.50;1.00;;;18.60;99.90;;;;;;5021219;28;20116;-69
2022/11/10 12:31:14;;;;;;;1.13;0.73;;;19.00;99.90;;;;;;4997769;28;20237;-71
2022/11/10 12:33:55;;;;;;;3.08;1.35;;;18.60;99.90;;;;;;4996981;28;20030;-68
2022/11/10 12:36:23;;;;;;;2.72;0.80;;;18.60;99.90;;;;;;4997930;28;20026;-69
2022/11/10 12:39:14;;;;;;;6.95;0.90;;;19.00;99.90;;;;;;4994216;28;20112;-65
2022/11/10 12:41:54;;;;;;;4.68;1.13;;;18.80;99.90;;;;;;4992444;28;20034;-64
2022/11/10 12:44:30;;;;;;;5.78;0.75;;;19.30;99.90;;;;;;5013999;28;20060;-64
2022/11/10 12:47:02;;;;;;;4.38;0.80;;;19.50;99.90;;;;;;5020510;28;20045;-74
2022/11/10 12:49:46;;;;;;;3.72;0.82;;;18.90;99.90;;;;;;5000579;28;20038;-74
2022/11/10 12:52:22;;;;;;;3.38;0.50;;;18.30;99.90;;;;;;5023430;28;20075;-75
2022/11/10 12:54:48;;;;;;;4.75;1.33;;;18.00;99.90;;;;;;4997330;28;20480;-76
2022/11/10 12:57:21;;;;;;;3.50;0.77;;;18.10;99.90;;;;;;5008383;28;20116;-76
2022/11/10 13:00:07;;;;;;;6.40;0.70;;;18.50;99.90;;;;;;5012850;28;20031;-73
2022/11/10 13:02:44;;;;;;;1.52;0.73;;;19.30;99.90;;;;;;5007417;28;20050;-73
2022/11/10 13:05:40;;;;;;;2.80;1.13;;;18.50;99.90;;;;;;5010656;28;20022;-77
2022/11/10 13:08:32;;;;;;;3.42;0.80;;;19.70;99.50;;;;;;5000247;28;20058;-77
2022/11/10 13:11:19;;;;;;;4.80;0.75;;;20.50;97.70;;;;;;4999635;28;20069;-74
2022/11/10 13:13:57;;;;;;;0.43;0.22;;;20.80;97.20;;;;;;5013239;28;20033;-74
2022/11/10 13:16:39;;;;;;;11.55;1.27;;;20.10;98.80;;;;;;5002947;28;20491;-74
2022/11/10 13:19:08;;;;;;;2.55;1.15;;;19.80;99.80;;;;;;4996942;28;20033;-74
2022/11/10 13:21:52;;;;;;;3.78;0.93;;;19.90;99.90;;;;;;4999778;28;20045;-74
2022/11/10 13:24:27;;;;;;;4.38;0.65;;;19.90;99.90;;;;;;5002317;28;20033;-75
2022/11/10 13:27:01;;;;;;;5.90;1.27;;;17.90;99.90;;;;;;5002119;28;20037;-74
2022/11/10 13:29:42;;;;;;;2.17;0.85;;;18.60;99.90;;;;;;5016628;28;20034;-65
2022/11/10 13:32:07;;;;;;;;;;;19.00;99.90;;;;;;4992244;28;20066;-65